Terminal Aerodrome Forecast
Issued by NWS Wilmington, NC

Home | Current Version | Previous Version | Text Only | Print | Product List | Glossary On
Versions: 1 2 3 4 5 6 7 8 9 10 11 12 13 14 15 16 17 18 19 20
217
FTUS42 KILM 282322
TAFMYR
TAF
KMYR 282322Z 2900/2924 20012KT P6SM BKN006 BKN020
      TEMPO 2902/2906 SCT006 BKN020
     FM290700 19008KT P6SM SCT006
     FM291300 18012KT P6SM SCT025
      AMD LTD TO CLD VIS AND WIND 2903/2910=

USA.gov is the U.S. government's official web portal to all federal, state and local government web resources and services.